sensor_id;sensor_type;location;lat;lon;timestamp;temperature;humidity
19813;DHT22;10066;48.108;11.448;2023-02-11T00:00:13;-2.60;99.90
19813;DHT22;10066;48.108;11.448;2023-02-11T00:02:40;-2.60;99.90
19813;DHT22;10066;48.108;11.448;2023-02-11T00:05:07;-2.60;99.90
19813;DHT22;10066;48.108;11.448;2023-02-11T00:07:36;-2.60;99.90
19813;DHT22;10066;48.108;11.448;2023-02-11T00:10:03;-2.70;99.90
19813;DHT22;10066;48.108;11.448;2023-02-11T00:12:32;-2.70;99.90
19813;DHT22;10066;48.108;11.448;2023-02-11T00:15:03;-2.70;99.90
19813;DHT22;10066;48.108;11.448;2023-02-11T00:17:31;-2.70;99.90
19813;DHT22;10066;48.108;11.448;2023-02-11T00:19:58;-2.70;99.90
19813;DHT22;10066;48.108;11.448;2023-02-11T00:22:25;-2.70;99.90
19813;DHT22;10066;48.108;11.448;2023-02-11T00:24:53;-2.70;99.90
19813;DHT22;10066;48.108;11.448;2023-02-11T00:27:21;-2.70;99.90
19813;DHT22;10066;48.108;11.448;2023-02-11T00:29:48;-2.70;99.90
19813;DHT22;10066;48.108;11.448;2023-02-11T00:32:15;-2.70;99.90
19813;DHT22;10066;48.108;11.448;2023-02-11T00:34:42;-2.80;99.90
19813;DHT22;10066;48.108;11.448;2023-02-11T00:37:09;-2.80;99.90
19813;DHT22;10066;48.108;11.448;2023-02-11T00:39:36;-2.80;99.90
19813;DHT22;10066;48.108;11.448;2023-02-11T00:42:05;-2.80;99.90
19813;DHT22;10066;48.108;11.448;2023-02-11T00:44:32;-2.80;99.90
19813;DHT22;10066;48.108;11.448;2023-02-11T00:46:59;-2.90;99.90
19813;DHT22;10066;48.108;11.448;2023-02-11T00:49:25;-2.90;99.90
19813;DHT22;10066;48.108;11.448;2023-02-11T00:51:52;-2.90;99.90
19813;DHT22;10066;48.108;11.448;2023-02-11T00:54:19;-2.90;99.90
19813;DHT22;10066;48.108;11.448;2023-02-11T00:56:46;-2.90;99.90
19813;DHT22;10066;48.108;11.448;2023-02-11T00:59:15;-3.00;99.90
19813;DHT22;10066;48.108;11.448;2023-02-11T01:01:41;-3.00;99.90
19813;DHT22;10066;48.108;11.448;2023-02-11T01:04:08;-3.00;99.90
19813;DHT22;10066;48.108;11.448;2023-02-11T01:06:35;-3.00;99.90
19813;DHT22;10066;48.108;11.448;2023-02-11T01:09:02;-3.00;99.90
19813;DHT22;10066;48.108;11.448;2023-02-11T01:11:32;-3.00;99.90
19813;DHT22;10066;48.108;11.448;2023-02-11T01:13:59;-3.00;99.90
19813;DHT22;10066;48.108;11.448;2023-02-11T01:16:27;-3.10;99.90
19813;DHT22;10066;48.108;11.448;2023-02-11T01:18:54;-3.10;99.90
19813;DHT22;10066;48.108;11.448;2023-02-11T01:21:23;-3.00;99.90
19813;DHT22;10066;48.108;11.448;2023-02-11T01:23:50;-3.10;99.90
19813;DHT22;10066;48.108;11.448;2023-02-11T01:26:18;-3.10;99.90
19813;DHT22;10066;48.108;11.448;2023-02-11T01:28:45;-3.10;99.90
19813;DHT22;10066;48.108;11.448;2023-02-11T01:31:12;-3.10;99.90
19813;DHT22;10066;48.108;11.448;2023-02-11T01:33:40;-3.10;99.90
19813;DHT22;10066;48.108;11.448;2023-02-11T01:36:07;-3.10;99.90
19813;DHT22;10066;48.108;11.448;2023-02-11T01:38:35;-3.20;99.90
19813;DHT22;10066;48.108;11.448;2023-02-11T01:41:05;-3.10;99.90
19813;DHT22;10066;48.108;11.448;2023-02-11T01:43:35;-3.10;99.90
19813;DHT22;10066;48.108;11.448;2023-02-11T01:46:19;-3.10;99.90
19813;DHT22;10066;48.108;11.448;2023-02-11T01:48:53;-3.10;99.90
19813;DHT22;10066;48.108;11.448;2023-02-11T01:51:27;-3.10;99.90
19813;DHT22;10066;48.108;11.448;2023-02-11T01:53:57;-3.20;99.90
19813;DHT22;10066;48.108;11.448;2023-02-11T01:56:47;-3.10;99.90
19813;DHT22;10066;48.108;11.448;2023-02-11T01:59:36;-3.20;99.90
19813;DHT22;10066;48.108;11.448;2023-02-11T02:02:07;-3.20;99.90
19813;DHT22;10066;48.108;11.448;2023-02-11T02:04:41;-3.20;99.90
19813;DHT22;10066;48.108;11.448;2023-02-11T02:07:12;-3.10;99.90
19813;DHT22;10066;48.108;11.448;2023-02-11T02:09:43;-3.30;99.90
19813;DHT22;10066;48.108;11.448;2023-02-11T02:12:11;-3.20;99.90
19813;DHT22;10066;48.108;11.448;2023-02-11T02:14:39;-3.10;99.90
19813;DHT22;10066;48.108;11.448;2023-02-11T02:17:06;-2.80;99.90
19813;DHT22;10066;48.108;11.448;2023-02-11T02:20:00;-3.30;99.90
19813;DHT22;10066;48.108;11.448;2023-02-11T02:25:57;-3.10;99.90
19813;DHT22;10066;48.108;11.448;2023-02-11T02:31:38;-3.30;99.90
19813;DHT22;10066;48.108;11.448;2023-02-11T02:34:16;-3.30;99.90
19813;DHT22;10066;48.108;11.448;2023-02-11T02:36:50;-3.30;99.90
19813;DHT22;10066;48.108;11.448;2023-02-11T02:39:26;-3.30;99.90
19813;DHT22;10066;48.108;11.448;2023-02-11T02:41:56;-3.30;99.90
19813;DHT22;10066;48.108;11.448;2023-02-11T02:44:23;-3.30;99.90
19813;DHT22;10066;48.108;11.448;2023-02-11T02:46:51;-3.30;99.90
19813;DHT22;10066;48.108;11.448;2023-02-11T02:49:19;-3.40;99.90
19813;DHT22;10066;48.108;11.448;2023-02-11T02:52:11;-3.40;99.90
19813;DHT22;10066;48.108;11.448;2023-02-11T02:58:04;-3.40;99.90
19813;DHT22;10066;48.108;11.448;2023-02-11T03:00:38;-3.40;99.90
19813;DHT22;10066;48.108;11.448;2023-02-11T03:03:16;-3.40;99.90
19813;DHT22;10066;48.108;11.448;2023-02-11T03:05:53;-3.40;99.90
19813;DHT22;10066;48.108;11.448;2023-02-11T03:08:26;-3.40;99.90
19813;DHT22;10066;48.108;11.448;2023-02-11T03:10:55;-3.50;99.90
19813;DHT22;10066;48.108;11.448;2023-02-11T03:13:26;-3.50;99.90
19813;DHT22;10066;48.108;11.448;2023-02-11T03:15:56;-3.40;99.90
19813;DHT22;10066;48.108;11.448;2023-02-11T03:18:26;-3.40;99.90
19813;DHT22;10066;48.108;11.448;2023-02-11T03:20:56;-3.40;99.90
19813;DHT22;10066;48.108;11.448;2023-02-11T03:23:28;-3.30;99.90
19813;DHT22;10066;48.108;11.448;2023-02-11T03:26:01;-3.40;99.90
19813;DHT22;10066;48.108;11.448;2023-02-11T03:28:33;-3.30;99.90
19813;DHT22;10066;48.108;11.448;2023-02-11T03:31:09;-3.30;99.90
19813;DHT22;10066;48.108;11.448;2023-02-11T03:33:39;-3.30;99.90
19813;DHT22;10066;48.108;11.448;2023-02-11T03:36:12;-3.30;99.90
19813;DHT22;10066;48.108;11.448;2023-02-11T03:38:46;-3.50;99.90
19813;DHT22;10066;48.108;11.448;2023-02-11T03:41:16;-3.20;99.90
19813;DHT22;10066;48.108;11.448;2023-02-11T03:43:49;-3.20;99.90
19813;DHT22;10066;48.108;11.448;2023-02-11T03:46:19;-3.20;99.90
19813;DHT22;10066;48.108;11.448;2023-02-11T03:48:48;-3.20;99.90
19813;DHT22;10066;48.108;11.448;2023-02-11T03:51:19;-3.20;99.90
19813;DHT22;10066;48.108;11.448;2023-02-11T03:53:47;-3.20;99.90
19813;DHT22;10066;48.108;11.448;2023-02-11T03:56:20;-3.00;99.90
19813;DHT22;10066;48.108;11.448;2023-02-11T03:58:48;-3.20;99.90
19813;DHT22;10066;48.108;11.448;2023-02-11T04:01:15;-3.30;99.90
19813;DHT22;10066;48.108;11.448;2023-02-11T04:03:42;-3.20;99.90
19813;DHT22;10066;48.108;11.448;2023-02-11T04:06:09;-3.20;99.90
19813;DHT22;10066;48.108;11.448;2023-02-11T04:08:38;-3.20;99.90
19813;DHT22;10066;48.108;11.448;2023-02-11T04:11:05;-3.20;99.90
19813;DHT22;10066;48.108;11.448;2023-02-11T04:13:32;-3.20;99.90
19813;DHT22;10066;48.108;11.448;2023-02-11T04:15:59;-3.20;99.90
19813;DHT22;10066;48.108;11.448;2023-02-11T04:18:26;-3.20;99.90
19813;DHT22;10066;48.108;11.448;2023-02-11T04:20:53;-3.20;99.90
19813;DHT22;10066;48.108;11.448;2023-02-11T04:23:20;-3.30;99.90
19813;DHT22;10066;48.108;11.448;2023-02-11T04:25:49;-3.20;99.90
19813;DHT22;10066;48.108;11.448;2023-02-11T04:28:16;-3.20;99.90
19813;DHT22;10066;48.108;11.448;2023-02-11T04:30:43;-3.20;99.90
19813;DHT22;10066;48.108;11.448;2023-02-11T04:33:10;-3.20;99.90
19813;DHT22;10066;48.108;11.448;2023-02-11T04:35:37;-3.10;99.90
19813;DHT22;10066;48.108;11.448;2023-02-11T04:38:04;-3.20;99.90
19813;DHT22;10066;48.108;11.448;2023-02-11T04:40:31;-3.10;99.90
19813;DHT22;10066;48.108;11.448;2023-02-11T04:42:59;-3.00;99.90
19813;DHT22;10066;48.108;11.448;2023-02-11T04:45:26;-3.10;99.90
19813;DHT22;10066;48.108;11.448;2023-02-11T04:47:53;-3.00;99.90
19813;DHT22;10066;48.108;11.448;2023-02-11T04:50:20;-3.00;99.90
19813;DHT22;10066;48.108;11.448;2023-02-11T04:52:47;-3.00;99.90
19813;DHT22;10066;48.108;11.448;2023-02-11T04:55:13;-3.00;99.90
19813;DHT22;10066;48.108;11.448;2023-02-11T04:57:40;-3.00;99.90
19813;DHT22;10066;48.108;11.448;2023-02-11T05:00:10;-2.90;99.90
19813;DHT22;10066;48.108;11.448;2023-02-11T05:02:38;-2.90;99.90
19813;DHT22;10066;48.108;11.448;2023-02-11T05:05:05;-2.90;99.90
19813;DHT22;10066;48.108;11.448;2023-02-11T05:07:32;-2.80;99.90
19813;DHT22;10066;48.108;11.448;2023-02-11T05:09:59;-2.80;99.90
19813;DHT22;10066;48.108;11.448;2023-02-11T05:12:26;-2.80;99.90
19813;DHT22;10066;48.108;11.448;2023-02-11T05:14:53;-2.80;99.90
19813;DHT22;10066;48.108;11.448;2023-02-11T05:17:21;-2.80;99.90
19813;DHT22;10066;48.108;11.448;2023-02-11T05:19:48;-2.70;99.90
19813;DHT22;10066;48.108;11.448;2023-02-11T05:22:15;-2.60;99.90
19813;DHT22;10066;48.108;11.448;2023-02-11T05:24:42;-2.40;99.90
19813;DHT22;10066;48.108;11.448;2023-02-11T05:27:09;-2.40;99.90
19813;DHT22;10066;48.108;11.448;2023-02-11T05:29:36;-2.30;99.90
19813;DHT22;10066;48.108;11.448;2023-02-11T05:32:03;-2.20;99.90
19813;DHT22;10066;48.108;11.448;2023-02-11T05:34:34;-2.10;99.90
19813;DHT22;10066;48.108;11.448;2023-02-11T05:37:01;-2.10;99.90
19813;DHT22;10066;48.108;11.448;2023-02-11T05:39:28;-1.90;99.90
19813;DHT22;10066;48.108;11.448;2023-02-11T05:41:55;-1.90;99.90
19813;DHT22;10066;48.108;11.448;2023-02-11T05:44:22;-1.80;99.90
19813;DHT22;10066;48.108;11.448;2023-02-11T05:46:49;-1.80;99.90
19813;DHT22;10066;48.108;11.448;2023-02-11T05:49:16;-1.70;99.90
19813;DHT22;10066;48.108;11.448;2023-02-11T05:51:44;-1.70;99.90
19813;DHT22;10066;48.108;11.448;2023-02-11T05:54:13;-1.80;99.90
19813;DHT22;10066;48.108;11.448;2023-02-11T05:56:40;-1.70;99.90
19813;DHT22;10066;48.108;11.448;2023-02-11T05:59:06;-1.60;99.90
19813;DHT22;10066;48.108;11.448;2023-02-11T06:01:34;-1.50;99.90
19813;DHT22;10066;48.108;11.448;2023-02-11T06:04:01;-1.40;99.90
19813;DHT22;10066;48.108;11.448;2023-02-11T06:06:28;-1.30;99.90
19813;DHT22;10066;48.108;11.448;2023-02-11T06:08:56;-1.20;99.90
19813;DHT22;10066;48.108;11.448;2023-02-11T06:11:23;-1.20;99.90
19813;DHT22;10066;48.108;11.448;2023-02-11T06:13:50;-1.10;99.90
19813;DHT22;10066;48.108;11.448;2023-02-11T06:16:17;-1.10;99.90
19813;DHT22;10066;48.108;11.448;2023-02-11T06:18:44;-1.00;99.90
19813;DHT22;10066;48.108;11.448;2023-02-11T06:21:11;-1.00;99.90
19813;DHT22;10066;48.108;11.448;2023-02-11T06:23:38;-1.10;99.90
19813;DHT22;10066;48.108;11.448;2023-02-11T06:26:08;-0.90;99.90
19813;DHT22;10066;48.108;11.448;2023-02-11T06:28:35;-1.00;99.90
19813;DHT22;10066;48.108;11.448;2023-02-11T06:31:04;-0.90;99.90
19813;DHT22;10066;48.108;11.448;2023-02-11T06:33:32;-0.90;99.90
19813;DHT22;10066;48.108;11.448;2023-02-11T06:35:59;-0.60;99.90
19813;DHT22;10066;48.108;11.448;2023-02-11T06:38:26;-0.90;99.90
19813;DHT22;10066;48.108;11.448;2023-02-11T06:40:53;-0.90;99.90
19813;DHT22;10066;48.108;11.448;2023-02-11T06:43:22;-0.90;99.90
19813;DHT22;10066;48.108;11.448;2023-02-11T06:45:52;-0.80;99.90
19813;DHT22;10066;48.108;11.448;2023-02-11T06:48:19;-0.70;99.90
19813;DHT22;10066;48.108;11.448;2023-02-11T06:50:46;-0.70;99.90
19813;DHT22;10066;48.108;11.448;2023-02-11T06:53:13;-0.70;99.90
19813;DHT22;10066;48.108;11.448;2023-02-11T06:55:40;-0.70;99.90
19813;DHT22;10066;48.108;11.448;2023-02-11T06:58:07;-0.40;99.90
19813;DHT22;10066;48.108;11.448;2023-02-11T07:00:35;-0.60;99.90
19813;DHT22;10066;48.108;11.448;2023-02-11T07:03:02;-0.60;99.90
19813;DHT22;10066;48.108;11.448;2023-02-11T07:05:29;-0.40;99.90
19813;DHT22;10066;48.108;11.448;2023-02-11T07:07:56;-0.30;99.90
19813;DHT22;10066;48.108;11.448;2023-02-11T07:12:51;0.10;99.90
19813;DHT22;10066;48.108;11.448;2023-02-11T07:15:18;0.20;99.90
19813;DHT22;10066;48.108;11.448;2023-02-11T07:22:40;0.60;99.90
19813;DHT22;10066;48.108;11.448;2023-02-11T07:25:07;0.60;99.90
19813;DHT22;10066;48.108;11.448;2023-02-11T07:27:34;0.60;99.90
19813;DHT22;10066;48.108;11.448;2023-02-11T07:30:01;0.60;99.90
19813;DHT22;10066;48.108;11.448;2023-02-11T07:32:28;0.60;99.90
19813;DHT22;10066;48.108;11.448;2023-02-11T07:34:56;0.60;99.90
19813;DHT22;10066;48.108;11.448;2023-02-11T07:37:23;0.70;99.90
19813;DHT22;10066;48.108;11.448;2023-02-11T07:39:50;0.70;99.90
19813;DHT22;10066;48.108;11.448;2023-02-11T07:42:17;0.80;99.90
19813;DHT22;10066;48.108;11.448;2023-02-11T07:44:45;0.80;99.90
19813;DHT22;10066;48.108;11.448;2023-02-11T07:47:12;0.80;99.90
19813;DHT22;10066;48.108;11.448;2023-02-11T07:49:39;0.90;99.90
19813;DHT22;10066;48.108;11.448;2023-02-11T07:52:08;1.00;99.90
19813;DHT22;10066;48.108;11.448;2023-02-11T07:54:35;1.00;99.90
19813;DHT22;10066;48.108;11.448;2023-02-11T07:57:02;1.10;99.90
19813;DHT22;10066;48.108;11.448;2023-02-11T07:59:30;1.10;99.90
19813;DHT22;10066;48.108;11.448;2023-02-11T08:01:57;1.20;99.90
19813;DHT22;10066;48.108;11.448;2023-02-11T08:04:24;1.30;99.90
19813;DHT22;10066;48.108;11.448;2023-02-11T08:06:51;1.40;99.90
19813;DHT22;10066;48.108;11.448;2023-02-11T08:09:22;1.50;99.90
19813;DHT22;10066;48.108;11.448;2023-02-11T08:11:49;1.50;99.90
19813;DHT22;10066;48.108;11.448;2023-02-11T08:14:16;1.60;99.90
19813;DHT22;10066;48.108;11.448;2023-02-11T08:16:44;1.60;99.90
19813;DHT22;10066;48.108;11.448;2023-02-11T08:19:13;1.60;99.90
19813;DHT22;10066;48.108;11.448;2023-02-11T08:21:40;1.70;99.90
19813;DHT22;10066;48.108;11.448;2023-02-11T08:24:07;1.80;99.90
19813;DHT22;10066;48.108;11.448;2023-02-11T08:26:36;1.90;99.90
19813;DHT22;10066;48.108;11.448;2023-02-11T08:29:07;2.00;99.90
19813;DHT22;10066;48.108;11.448;2023-02-11T08:31:36;2.10;99.90
19813;DHT22;10066;48.108;11.448;2023-02-11T08:34:04;2.20;99.90
19813;DHT22;10066;48.108;11.448;2023-02-11T08:36:33;2.30;99.90
19813;DHT22;10066;48.108;11.448;2023-02-11T08:39:03;2.40;99.90
19813;DHT22;10066;48.108;11.448;2023-02-11T08:41:31;2.50;99.90
19813;DHT22;10066;48.108;11.448;2023-02-11T08:44:01;2.60;99.90
19813;DHT22;10066;48.108;11.448;2023-02-11T08:46:28;2.80;99.90
19813;DHT22;10066;48.108;11.448;2023-02-11T08:48:55;2.90;99.90
19813;DHT22;10066;48.108;11.448;2023-02-11T08:51:23;3.10;99.90
19813;DHT22;10066;48.108;11.448;2023-02-11T08:53:52;3.20;99.90
19813;DHT22;10066;48.108;11.448;2023-02-11T08:58:48;3.30;99.90
19813;DHT22;10066;48.108;11.448;2023-02-11T09:01:18;3.40;99.90
19813;DHT22;10066;48.108;11.448;2023-02-11T09:03:45;3.40;99.90
19813;DHT22;10066;48.108;11.448;2023-02-11T09:06:13;3.50;99.90
19813;DHT22;10066;48.108;11.448;2023-02-11T09:08:42;3.60;99.90
19813;DHT22;10066;48.108;11.448;2023-02-11T09:11:10;3.80;99.90
19813;DHT22;10066;48.108;11.448;2023-02-11T09:13:39;3.90;99.90
19813;DHT22;10066;48.108;11.448;2023-02-11T09:16:06;4.00;99.90
19813;DHT22;10066;48.108;11.448;2023-02-11T09:18:34;4.20;99.90
19813;DHT22;10066;48.108;11.448;2023-02-11T09:21:02;4.20;99.90
19813;DHT22;10066;48.108;11.448;2023-02-11T09:23:29;4.20;99.90
19813;DHT22;10066;48.108;11.448;2023-02-11T09:25:59;4.20;99.90
19813;DHT22;10066;48.108;11.448;2023-02-11T09:28:25;4.20;99.90
19813;DHT22;10066;48.108;11.448;2023-02-11T09:30:52;4.20;99.90
19813;DHT22;10066;48.108;11.448;2023-02-11T09:33:19;4.30;99.90
19813;DHT22;10066;48.108;11.448;2023-02-11T09:35:47;4.30;99.90
19813;DHT22;10066;48.108;11.448;2023-02-11T09:38:14;4.30;99.90
19813;DHT22;10066;48.108;11.448;2023-02-11T09:40:42;4.30;99.90
19813;DHT22;10066;48.108;11.448;2023-02-11T09:43:15;4.40;99.90
19813;DHT22;10066;48.108;11.448;2023-02-11T09:45:43;4.40;99.90
19813;DHT22;10066;48.108;11.448;2023-02-11T09:48:14;4.40;99.90
19813;DHT22;10066;48.108;11.448;2023-02-11T09:50:43;4.40;99.90
19813;DHT22;10066;48.108;11.448;2023-02-11T09:53:18;4.50;99.90
19813;DHT22;10066;48.108;11.448;2023-02-11T09:55:48;4.50;99.90
19813;DHT22;10066;48.108;11.448;2023-02-11T09:58:24;4.50;99.90
19813;DHT22;10066;48.108;11.448;2023-02-11T10:00:59;4.60;99.90
19813;DHT22;10066;48.108;11.448;2023-02-11T10:03:42;4.50;99.90
19813;DHT22;10066;48.108;11.448;2023-02-11T10:06:28;4.50;99.90
19813;DHT22;10066;48.108;11.448;2023-02-11T10:09:10;4.60;99.90
19813;DHT22;10066;48.108;11.448;2023-02-11T10:11:51;4.70;99.60
19813;DHT22;10066;48.108;11.448;2023-02-11T10:14:43;4.90;99.80
19813;DHT22;10066;48.108;11.448;2023-02-11T10:17:22;5.00;99.50
19813;DHT22;10066;48.108;11.448;2023-02-11T10:20:02;5.20;98.70
19813;DHT22;10066;48.108;11.448;2023-02-11T10:22:35;5.30;98.40
19813;DHT22;10066;48.108;11.448;2023-02-11T10:25:16;5.50;99.30
19813;DHT22;10066;48.108;11.448;2023-02-11T10:27:44;5.60;98.10
19813;DHT22;10066;48.108;11.448;2023-02-11T10:30:20;5.80;97.60
19813;DHT22;10066;48.108;11.448;2023-02-11T10:32:52;5.80;97.50
19813;DHT22;10066;48.108;11.448;2023-02-11T10:35:22;5.90;96.80
19813;DHT22;10066;48.108;11.448;2023-02-11T10:37:49;5.90;97.20
19813;DHT22;10066;48.108;11.448;2023-02-11T10:40:19;6.00;97.20
19813;DHT22;10066;48.108;11.448;2023-02-11T10:42:49;5.90;96.50
19813;DHT22;10066;48.108;11.448;2023-02-11T10:45:21;5.90;96.40
19813;DHT22;10066;48.108;11.448;2023-02-11T10:47:49;5.90;95.90
19813;DHT22;10066;48.108;11.448;2023-02-11T10:50:19;5.80;96.20
19813;DHT22;10066;48.108;11.448;2023-02-11T10:52:46;5.90;96.10
19813;DHT22;10066;48.108;11.448;2023-02-11T10:55:17;6.00;96.20
19813;DHT22;10066;48.108;11.448;2023-02-11T10:57:52;6.10;96.00
19813;DHT22;10066;48.108;11.448;2023-02-11T11:00:26;6.20;95.60
19813;DHT22;10066;48.108;11.448;2023-02-11T11:02:59;6.30;94.80
19813;DHT22;10066;48.108;11.448;2023-02-11T11:05:30;6.40;95.30
19813;DHT22;10066;48.108;11.448;2023-02-11T11:07:59;6.50;94.90
19813;DHT22;10066;48.108;11.448;2023-02-11T11:10:36;6.60;95.00
19813;DHT22;10066;48.108;11.448;2023-02-11T11:13:23;6.80;94.70
19813;DHT22;10066;48.108;11.448;2023-02-11T11:16:07;6.90;94.10
19813;DHT22;10066;48.108;11.448;2023-02-11T11:18:34;7.00;94.50
19813;DHT22;10066;48.108;11.448;2023-02-11T11:21:03;7.10;94.80
19813;DHT22;10066;48.108;11.448;2023-02-11T11:23:34;7.30;94.20
19813;DHT22;10066;48.108;11.448;2023-02-11T11:26:07;7.40;93.50
19813;DHT22;10066;48.108;11.448;2023-02-11T11:28:38;7.40;92.80
19813;DHT22;10066;48.108;11.448;2023-02-11T11:31:12;7.40;92.70
19813;DHT22;10066;48.108;11.448;2023-02-11T11:33:42;7.50;92.10
19813;DHT22;10066;48.108;11.448;2023-02-11T11:36:12;7.60;93.00
19813;DHT22;10066;48.108;11.448;2023-02-11T11:38:43;7.60;92.20
19813;DHT22;10066;48.108;11.448;2023-02-11T11:41:24;7.50;90.20
19813;DHT22;10066;48.108;11.448;2023-02-11T11:44:00;7.50;88.10
19813;DHT22;10066;48.108;11.448;2023-02-11T11:46:30;7.40;91.00
19813;DHT22;10066;48.108;11.448;2023-02-11T11:49:06;7.40;89.30
19813;DHT22;10066;48.108;11.448;2023-02-11T11:51:40;7.40;87.50
19813;DHT22;10066;48.108;11.448;2023-02-11T11:54:11;7.40;88.40
19813;DHT22;10066;48.108;11.448;2023-02-11T11:56:49;7.40;88.70
19813;DHT22;10066;48.108;11.448;2023-02-11T11:59:16;7.50;88.10
19813;DHT22;10066;48.108;11.448;2023-02-11T12:01:51;7.50;84.30
19813;DHT22;10066;48.108;11.448;2023-02-11T12:04:31;7.60;85.80
19813;DHT22;10066;48.108;11.448;2023-02-11T12:07:13;7.60;85.20
19813;DHT22;10066;48.108;11.448;2023-02-11T12:09:50;7.70;84.80
19813;DHT22;10066;48.108;11.448;2023-02-11T12:12:37;7.70;82.90
19813;DHT22;10066;48.108;11.448;2023-02-11T12:15:20;7.80;84.00
19813;DHT22;10066;48.108;11.448;2023-02-11T12:18:03;7.80;84.60
19813;DHT22;10066;48.108;11.448;2023-02-11T12:20:41;8.00;83.40
19813;DHT22;10066;48.108;11.448;2023-02-11T12:23:29;8.00;83.50
19813;DHT22;10066;48.108;11.448;2023-02-11T12:26:06;8.10;83.10
19813;DHT22;10066;48.108;11.448;2023-02-11T12:28:49;8.10;81.40
19813;DHT22;10066;48.108;11.448;2023-02-11T12:31:26;8.10;82.00
19813;DHT22;10066;48.108;11.448;2023-02-11T12:34:22;8.10;83.20
19813;DHT22;10066;48.108;11.448;2023-02-11T12:37:02;8.10;80.90
19813;DHT22;10066;48.108;11.448;2023-02-11T12:39:36;8.10;77.60
19813;DHT22;10066;48.108;11.448;2023-02-11T12:42:22;8.10;78.20
19813;DHT22;10066;48.108;11.448;2023-02-11T12:45:19;8.10;77.80
19813;DHT22;10066;48.108;11.448;2023-02-11T12:47:57;8.10;78.50
19813;DHT22;10066;48.108;11.448;2023-02-11T12:50:31;8.10;74.50
19813;DHT22;10066;48.108;11.448;2023-02-11T12:53:12;8.10;75.50
19813;DHT22;10066;48.108;11.448;2023-02-11T12:55:45;8.10;73.90
19813;DHT22;10066;48.108;11.448;2023-02-11T12:58:17;8.20;76.10
19813;DHT22;10066;48.108;11.448;2023-02-11T13:00:49;8.10;74.50
19813;DHT22;10066;48.108;11.448;2023-02-11T13:03:21;8.10;73.20
19813;DHT22;10066;48.108;11.448;2023-02-11T13:05:53;8.00;73.50
19813;DHT22;10066;48.108;11.448;2023-02-11T13:08:26;8.00;73.10
19813;DHT22;10066;48.108;11.448;2023-02-11T13:10:56;8.00;74.40
19813;DHT22;10066;48.108;11.448;2023-02-11T13:13:27;7.90;73.50
19813;DHT22;10066;48.108;11.448;2023-02-11T13:15:58;7.80;72.70
19813;DHT22;10066;48.108;11.448;2023-02-11T13:18:39;7.70;73.60
19813;DHT22;10066;48.108;11.448;2023-02-11T13:21:37;7.50;73.50
19813;DHT22;10066;48.108;11.448;2023-02-11T13:24:17;7.30;74.80
19813;DHT22;10066;48.108;11.448;2023-02-11T13:26:51;7.20;74.00
19813;DHT22;10066;48.108;11.448;2023-02-11T13:29:26;7.10;74.90
19813;DHT22;10066;48.108;11.448;2023-02-11T13:32:05;7.10;74.30
19813;DHT22;10066;48.108;11.448;2023-02-11T13:34:56;7.10;74.10
19813;DHT22;10066;48.108;11.448;2023-02-11T13:37:24;7.20;74.90
19813;DHT22;10066;48.108;11.448;2023-02-11T13:39:56;7.40;75.60
19813;DHT22;10066;48.108;11.448;2023-02-11T13:42:24;7.50;74.70
19813;DHT22;10066;48.108;11.448;2023-02-11T13:44:51;7.60;74.10
19813;DHT22;10066;48.108;11.448;2023-02-11T13:47:28;7.70;72.70
19813;DHT22;10066;48.108;11.448;2023-02-11T13:49:56;7.70;70.20
19813;DHT22;10066;48.108;11.448;2023-02-11T13:52:26;7.80;71.90
19813;DHT22;10066;48.108;11.448;2023-02-11T13:54:57;7.80;72.50
19813;DHT22;10066;48.108;11.448;2023-02-11T13:57:32;7.90;72.10
19813;DHT22;10066;48.108;11.448;2023-02-11T14:00:02;7.90;71.40
19813;DHT22;10066;48.108;11.448;2023-02-11T14:02:33;8.00;72.10
19813;DHT22;10066;48.108;11.448;2023-02-11T14:05:27;8.00;72.30
19813;DHT22;10066;48.108;11.448;2023-02-11T14:08:18;8.10;72.70
19813;DHT22;10066;48.108;11.448;2023-02-11T14:11:03;8.10;70.20
19813;DHT22;10066;48.108;11.448;2023-02-11T14:13:34;8.00;70.70
19813;DHT22;10066;48.108;11.448;2023-02-11T14:16:09;8.00;70.20
19813;DHT22;10066;48.108;11.448;2023-02-11T14:18:59;8.00;69.90
19813;DHT22;10066;48.108;11.448;2023-02-11T14:21:36;8.00;69.60
19813;DHT22;10066;48.108;11.448;2023-02-11T14:27:10;8.10;71.30
19813;DHT22;10066;48.108;11.448;2023-02-11T14:29:47;8.10;70.20
19813;DHT22;10066;48.108;11.448;2023-02-11T14:32:25;8.20;70.20
19813;DHT22;10066;48.108;11.448;2023-02-11T14:35:00;8.20;68.90
19813;DHT22;10066;48.108;11.448;2023-02-11T14:37:37;8.10;67.90
19813;DHT22;10066;48.108;11.448;2023-02-11T14:40:21;8.20;70.60
19813;DHT22;10066;48.108;11.448;2023-02-11T14:42:52;8.10;69.10
19813;DHT22;10066;48.108;11.448;2023-02-11T14:45:24;8.10;68.70
19813;DHT22;10066;48.108;11.448;2023-02-11T14:47:55;8.10;67.70
19813;DHT22;10066;48.108;11.448;2023-02-11T14:50:27;8.10;68.30
19813;DHT22;10066;48.108;11.448;2023-02-11T14:52:59;8.10;67.30
19813;DHT22;10066;48.108;11.448;2023-02-11T14:55:29;8.00;68.50
19813;DHT22;10066;48.108;11.448;2023-02-11T14:58:06;8.10;68.50
19813;DHT22;10066;48.108;11.448;2023-02-11T15:00:33;8.10;68.00
19813;DHT22;10066;48.108;11.448;2023-02-11T15:03:01;8.00;68.60
19813;DHT22;10066;48.108;11.448;2023-02-11T15:05:30;8.00;68.70
19813;DHT22;10066;48.108;11.448;2023-02-11T15:07:59;7.90;69.00
19813;DHT22;10066;48.108;11.448;2023-02-11T15:10:30;7.90;69.60
19813;DHT22;10066;48.108;11.448;2023-02-11T15:12:59;7.90;70.30
19813;DHT22;10066;48.108;11.448;2023-02-11T15:15:30;7.80;70.70
19813;DHT22;10066;48.108;11.448;2023-02-11T15:18:03;7.80;71.50
19813;DHT22;10066;48.108;11.448;2023-02-11T15:20:33;7.80;72.30
19813;DHT22;10066;48.108;11.448;2023-02-11T15:23:02;7.70;72.70
19813;DHT22;10066;48.108;11.448;2023-02-11T15:25:29;7.70;72.60
19813;DHT22;10066;48.108;11.448;2023-02-11T15:27:57;7.70;73.40
19813;DHT22;10066;48.108;11.448;2023-02-11T15:30:27;7.70;73.80
19813;DHT22;10066;48.108;11.448;2023-02-11T15:32:55;7.70;74.10
19813;DHT22;10066;48.108;11.448;2023-02-11T15:35:26;7.50;73.90
19813;DHT22;10066;48.108;11.448;2023-02-11T15:37:55;7.50;74.10
19813;DHT22;10066;48.108;11.448;2023-02-11T15:40:24;7.40;74.50
19813;DHT22;10066;48.108;11.448;2023-02-11T15:42:54;7.40;74.90
19813;DHT22;10066;48.108;11.448;2023-02-11T15:45:23;7.30;75.20
19813;DHT22;10066;48.108;11.448;2023-02-11T15:47:56;7.30;75.60
19813;DHT22;10066;48.108;11.448;2023-02-11T15:50:26;7.20;76.20
19813;DHT22;10066;48.108;11.448;2023-02-11T15:52:59;7.10;77.00
19813;DHT22;10066;48.108;11.448;2023-02-11T15:55:27;7.10;77.50
19813;DHT22;10066;48.108;11.448;2023-02-11T15:57:56;7.10;77.90
19813;DHT22;10066;48.108;11.448;2023-02-11T16:00:25;7.10;78.50
19813;DHT22;10066;48.108;11.448;2023-02-11T16:02:59;7.10;78.80
19813;DHT22;10066;48.108;11.448;2023-02-11T16:05:28;7.10;79.00
19813;DHT22;10066;48.108;11.448;2023-02-11T16:07:58;7.10;79.50
19813;DHT22;10066;48.108;11.448;2023-02-11T16:10:27;7.10;79.60